Cherry Grove, South Carolina
Current Conditions -  °F | °C
As of 1:53 PM on Tuesday 27 Jan 2015 (Local Time) from KCRE Reporting Station
Clear Clear  
Wind Chill: 41°   Ceiling: Unl
Heat Index: 47°   Visibility: 10mi
Dew Point: 21°   Wind: 13mph
Humidity: 36%   Direction: 290°WNW
Pressure: 29.8"   Gusts: NA
Location:  33.8371°N, 78.6471°W
Report Text: KCRE 271853Z 29011KT 10SM CLR 08/M06 A2980 RMK AO1 SLP092 T00831061
Loading
Personal Weather Stations






























Interactive Weather Map New forecast layout! Learn more

10-Day Weather Forecast

Advertisements
Track Severe Weather on mobile